createdAt,value
2023-01-11T00:04:57.505Z,97267.69
2023-01-11T00:10:04.682Z,97270.91
2023-01-11T00:15:10.675Z,97275.59
2023-01-11T00:20:13.734Z,97274.44
2023-01-11T00:25:17.023Z,97260.22
2023-01-11T00:30:21.563Z,97259.75
2023-01-11T00:35:24.675Z,97253.28
2023-01-11T00:40:27.963Z,97240.63
2023-01-11T00:45:49.928Z,97232.97
2023-01-11T00:50:55.098Z,97231.94
2023-01-11T00:55:58.249Z,97226.84
2023-01-11T01:01:08.541Z,97221.13
2023-01-11T01:06:11.657Z,97217.56
2023-01-11T01:11:15.186Z,97220.50
2023-01-11T01:16:19.838Z,97222.63
2023-01-11T01:21:22.892Z,97224.22
2023-01-11T01:26:26.132Z,97209.78
2023-01-11T01:31:30.713Z,97208.13
2023-01-11T01:36:34.285Z,97211.94
2023-01-11T01:41:37.665Z,97205.66
2023-01-11T01:46:42.229Z,97213.47
2023-01-11T01:51:50.764Z,97188.97
2023-01-11T01:56:57.748Z,97169.88
2023-01-11T02:02:02.618Z,97147.06
2023-01-11T02:07:09.878Z,97141.81
2023-01-11T02:12:13.648Z,97136.22
2023-01-11T02:17:18.344Z,97133.31
2023-01-11T02:23:08.909Z,97126.22
2023-01-11T02:28:17.440Z,97116.56
2023-01-11T02:33:28.427Z,97119.16
2023-01-11T02:38:38.780Z,97112.41
2023-01-11T02:44:07.607Z,97110.84
2023-01-11T02:49:17.634Z,97113.16
2023-01-11T02:54:23.142Z,97115.63
2023-01-11T02:59:32.645Z,97107.38
2023-01-11T03:04:37.559Z,97099.16
2023-01-11T03:09:51.856Z,97112.28
2023-01-11T03:15:11.085Z,97088.94
2023-01-11T03:20:21.894Z,97084.97
2023-01-11T03:25:32.836Z,97088.56
2023-01-11T03:30:47.487Z,97073.06
2023-01-11T03:35:56.966Z,97060.56
2023-01-11T03:41:05.666Z,97040.38
2023-01-11T03:46:13.823Z,97045.84
2023-01-11T03:51:22.036Z,97036.22
2023-01-11T03:56:31.535Z,97036.22
2023-01-11T04:01:36.760Z,97006.81
2023-01-11T04:06:40.055Z,97012.47
2023-01-11T04:11:43.237Z,97016.69
2023-01-11T04:16:47.664Z,97000.91
2023-01-11T04:21:50.843Z,97023.25
2023-01-11T04:26:54.009Z,97031.88
2023-01-11T04:31:58.607Z,97033.25
2023-01-11T04:37:01.909Z,97022.81
2023-01-11T04:42:20.453Z,96999.19
2023-01-11T04:47:26.680Z,97003.75
2023-01-11T04:52:29.835Z,97021.47
2023-01-11T04:57:33.180Z,97006.38
2023-01-11T05:02:37.772Z,96989.41
2023-01-11T05:07:41.088Z,96974.38
2023-01-11T05:12:44.228Z,96973.28
2023-01-11T05:17:48.820Z,96971.00
2023-01-11T05:22:51.854Z,96978.75
2023-01-11T05:27:55.017Z,96970.16
2023-01-11T05:32:59.706Z,96984.44
2023-01-11T05:38:02.784Z,96992.88
2023-01-11T05:43:05.880Z,97000.44
2023-01-11T05:48:10.510Z,97001.50
2023-01-11T05:53:13.779Z,96995.41
2023-01-11T05:58:17.109Z,96998.56
2023-01-11T06:03:22.407Z,96982.66
2023-01-11T06:08:25.664Z,96990.63
2023-01-11T06:13:28.926Z,96969.22
2023-01-11T06:18:34.784Z,96975.63
2023-01-11T06:23:43.312Z,96980.34
2023-01-11T06:28:47.264Z,96969.13
2023-01-11T06:33:51.894Z,96979.50
2023-01-11T06:38:55.121Z,96967.53
2023-01-11T06:43:58.343Z,96961.44
2023-01-11T06:49:04.527Z,96963.69
2023-01-11T06:54:07.777Z,96952.50
2023-01-11T06:59:10.937Z,96953.06
2023-01-11T07:04:15.862Z,96945.09
2023-01-11T07:09:19.069Z,96950.31
2023-01-11T07:14:22.175Z,96945.75
2023-01-11T07:19:26.671Z,96957.13
2023-01-11T07:24:29.921Z,96957.75
2023-01-11T07:29:33.015Z,96972.31
2023-01-11T07:34:37.818Z,96962.47
2023-01-11T07:39:43.934Z,96959.59
2023-01-11T07:44:47.234Z,96970.88
2023-01-11T07:49:51.955Z,96970.75
2023-01-11T07:54:55.160Z,96963.84
2023-01-11T07:59:58.310Z,96969.09
2023-01-11T08:05:03.361Z,96968.13
2023-01-11T08:10:08.092Z,96960.69
2023-01-11T08:15:14.082Z,96957.28
2023-01-11T08:20:21.017Z,96942.19
2023-01-11T08:25:24.593Z,96946.75
2023-01-11T08:30:27.858Z,96941.44
2023-01-11T08:35:38.628Z,96944.34
2023-01-11T08:40:41.958Z,96942.63
2023-01-11T08:45:45.128Z,96954.38
2023-01-11T08:50:49.779Z,96951.88
2023-01-11T08:55:54.053Z,96957.00
2023-01-11T09:01:00.047Z,96954.75
2023-01-11T09:06:04.783Z,96949.84
2023-01-11T09:11:27.913Z,96940.72
2023-01-11T09:16:32.271Z,96931.50
2023-01-11T09:21:37.104Z,96931.25
2023-01-11T09:26:41.614Z,96934.63
2023-01-11T09:31:44.971Z,96928.97
2023-01-11T09:36:49.679Z,96935.69
2023-01-11T09:42:16.543Z,96946.22
2023-01-11T09:47:32.173Z,96936.88
2023-01-11T09:52:41.207Z,96931.28
2023-01-11T09:58:07.026Z,96929.09
2023-01-11T10:03:42.723Z,96923.19
2023-01-11T10:18:31.912Z,96924.88
2023-01-11T10:20:15.209Z,96930.97
2023-01-11T10:25:26.635Z,96929.16
2023-01-11T10:30:42.127Z,96925.97
2023-01-11T10:36:06.127Z,96919.34
2023-01-11T10:41:25.948Z,96916.25
2023-01-11T10:46:32.040Z,96913.56
2023-01-11T10:51:40.371Z,96922.50
2023-01-11T10:57:02.518Z,96926.75
2023-01-11T11:02:22.680Z,96926.88
2023-01-11T11:07:34.687Z,96923.25
2023-01-11T11:12:48.290Z,96923.34
2023-01-11T11:17:55.193Z,96916.25
2023-01-11T11:22:59.073Z,96911.75
2023-01-11T11:28:06.900Z,96905.84
2023-01-11T11:33:18.107Z,96899.97
2023-01-11T11:38:24.019Z,96898.59
2023-01-11T11:43:29.105Z,96900.16
2023-01-11T11:48:34.559Z,96890.13
2023-01-11T11:53:43.160Z,96892.56
2023-01-11T11:58:48.576Z,96885.50
2023-01-11T12:03:53.235Z,96882.09
2023-01-11T12:08:57.742Z,96877.19
2023-01-11T12:14:16.896Z,96871.06
2023-01-11T12:19:28.372Z,96875.63
2023-01-11T12:24:31.596Z,96870.16
2023-01-11T12:30:08.537Z,96867.06
2023-01-11T12:35:35.525Z,96863.66
2023-01-11T12:40:49.642Z,96864.00
2023-01-11T12:46:04.545Z,96866.75
2023-01-11T12:51:25.040Z,96871.66
2023-01-11T12:56:42.957Z,96861.38
2023-01-11T13:01:57.362Z,96867.06
2023-01-11T13:07:10.497Z,96861.41
2023-01-11T13:12:22.453Z,96863.44
2023-01-11T13:17:33.199Z,96867.47
2023-01-11T13:22:40.424Z,96865.69
2023-01-11T13:27:44.566Z,96870.06
2023-01-11T13:32:55.487Z,96879.81
2023-01-11T13:38:07.244Z,96889.72
2023-01-11T13:43:16.328Z,96879.47
2023-01-11T13:48:27.300Z,96877.75
2023-01-11T13:53:37.733Z,96863.44
2023-01-11T13:58:52.459Z,96878.13
2023-01-11T14:04:02.424Z,96878.31
2023-01-11T14:09:20.744Z,96898.28
2023-01-11T14:15:05.423Z,96917.56
2023-01-11T14:20:21.903Z,96916.59
2023-01-11T14:25:29.475Z,96908.44
2023-01-11T14:30:45.776Z,96911.50
2023-01-11T14:36:09.842Z,96919.28
2023-01-11T14:41:45.340Z,96926.97
2023-01-11T14:47:13.710Z,96929.31
2023-01-11T14:52:34.546Z,96935.78
2023-01-11T14:57:44.164Z,96961.50
2023-01-11T15:02:48.093Z,96967.41
2023-01-11T15:07:52.599Z,96979.16
2023-01-11T15:12:57.900Z,96982.50
2023-01-11T15:18:19.607Z,96987.44
2023-01-11T15:23:25.742Z,96990.31
2023-01-11T15:28:36.592Z,96977.00
2023-01-11T15:33:47.775Z,96984.94
2023-01-11T15:38:59.144Z,96988.75
2023-01-11T15:44:23.277Z,96989.81
2023-01-11T15:49:59.778Z,97001.44
2023-01-11T15:55:36.137Z,97014.91
2023-01-11T16:01:05.425Z,97032.97
2023-01-11T16:06:18.907Z,97038.63
2023-01-11T16:11:33.052Z,97032.13
2023-01-11T16:16:41.601Z,97037.19
2023-01-11T16:21:49.540Z,97048.09
2023-01-11T16:26:57.408Z,97067.03
2023-01-11T16:32:02.907Z,97069.78
2023-01-11T16:37:23.860Z,97089.06
2023-01-11T16:42:34.405Z,97091.00
2023-01-11T16:47:38.009Z,97090.41
2023-01-11T16:52:53.356Z,97105.47
2023-01-11T16:58:01.406Z,97092.16
2023-01-11T17:03:17.881Z,97100.97
2023-01-11T17:08:32.874Z,97114.94
2023-01-11T17:14:17.565Z,97113.63
2023-01-11T17:19:23.008Z,97133.53
2023-01-11T17:24:27.283Z,97159.78
2023-01-11T17:29:35.266Z,97153.44
2023-01-11T17:34:39.947Z,97154.34
2023-01-11T17:39:47.969Z,97152.81
2023-01-11T17:45:12.396Z,97160.19
2023-01-11T17:50:21.909Z,97168.75
2023-01-11T17:55:26.522Z,97169.75
2023-01-11T18:00:31.589Z,97171.06
2023-01-11T18:05:36.437Z,97182.16
2023-01-11T18:10:41.465Z,97189.50
2023-01-11T18:15:49.952Z,97191.50
2023-01-11T18:20:53.329Z,97191.06
2023-01-11T18:26:27.932Z,97200.34
2023-01-11T18:31:33.651Z,97220.03
2023-01-11T18:36:37.303Z,97230.13
2023-01-11T18:41:58.401Z,97229.16
2023-01-11T18:47:10.685Z,97227.00
2023-01-11T18:52:14.649Z,97223.28
2023-01-11T18:57:17.835Z,97232.66
2023-01-11T19:02:28.081Z,97228.59
2023-01-11T19:07:31.300Z,97227.69
2023-01-11T19:12:34.974Z,97225.81
2023-01-11T19:17:40.248Z,97232.53
2023-01-11T19:22:43.430Z,97235.38
2023-01-11T19:27:46.546Z,97250.66
2023-01-11T19:32:53.722Z,97249.16
2023-01-11T19:37:57.161Z,97263.59
2023-01-11T19:43:00.725Z,97265.28
2023-01-11T19:48:06.094Z,97250.31
2023-01-11T19:53:09.140Z,97263.81
2023-01-11T19:58:13.365Z,97267.56
2023-01-11T20:03:17.946Z,97273.56
2023-01-11T20:08:22.312Z,97273.44
2023-01-11T20:13:25.678Z,97263.88
2023-01-11T20:18:30.568Z,97258.06
2023-01-11T20:23:34.689Z,97257.31
2023-01-11T20:28:38.056Z,97249.50
2023-01-11T20:33:42.823Z,97246.00
2023-01-11T20:38:46.880Z,97238.59
2023-01-11T20:43:50.468Z,97246.72
2023-01-11T20:48:55.653Z,97244.13
2023-01-11T20:53:59.621Z,97250.88
2023-01-11T20:59:03.168Z,97251.88
2023-01-11T21:04:09.945Z,97249.03
2023-01-11T21:09:15.877Z,97257.16
2023-01-11T21:14:19.222Z,97255.91
2023-01-11T21:19:24.219Z,97242.25
2023-01-11T21:24:28.278Z,97234.75
2023-01-11T21:29:32.068Z,97246.88
2023-01-11T21:34:36.898Z,97240.16
2023-01-11T21:39:40.350Z,97239.19
2023-01-11T21:44:44.135Z,97242.31
2023-01-11T21:49:49.281Z,97236.97
2023-01-11T21:54:53.734Z,97254.34
2023-01-11T21:59:57.096Z,97244.19
2023-01-11T22:05:01.819Z,97232.53
2023-01-11T22:10:05.753Z,97230.53
2023-01-11T22:15:10.440Z,97240.84
2023-01-11T22:20:17.586Z,97246.25
2023-01-11T22:25:20.735Z,97253.69
2023-01-11T22:30:24.295Z,97262.00
2023-01-11T22:35:29.478Z,97253.16
2023-01-11T22:40:32.740Z,97245.59
2023-01-11T22:45:35.931Z,97258.53
2023-01-11T22:50:41.040Z,97253.97
2023-01-11T22:55:44.369Z,97262.72
2023-01-11T23:00:48.807Z,97260.41
2023-01-11T23:05:53.317Z,97258.63
2023-01-11T23:11:00.362Z,97247.94
2023-01-11T23:16:03.552Z,97242.91
2023-01-11T23:21:08.246Z,97247.69
2023-01-11T23:26:12.769Z,97253.50
2023-01-11T23:31:17.891Z,97262.31
2023-01-11T23:36:24.278Z,97263.59
2023-01-11T23:41:45.037Z,97264.25
2023-01-11T23:47:06.563Z,97261.28
2023-01-11T23:52:12.354Z,97259.69
2023-01-11T23:57:17.903Z,97246.44
